Terminal Aerodrome Forecast
Issued by NWS Cleveland, OH

Home | Current Version | Previous Version | Graphics & Text | Print | Product List | Glossary Off
Versions: 1 2 3 4 5 6 7 8 9 10 11 12 13

000
FTUS41 KCLE 220520
TAFTOL
TAF
KTOL 220520Z 2206/2306 17004KT P6SM SKC
     FM221400 18009KT P6SM SCT250
     FM221800 19013KT P6SM SCT250
     FM230000 17009KT P6SM SCT150
     FM230100 17011KT P6SM BKN100=

USA.gov is the U.S. government's official web portal to all federal, state and local government web resources and services.